Time;durP1;ratioP1;P1;durP2;ratioP2;P2;SDS_P1;SDS_P2;PMS_P1;PMS_P2;Temp;Humidity;BMP_temperature;BMP_pressure;BME280_temperature;BME280_humidity;BME280_pressure;Samples;Min_cycle;Max_cycle;Signal;HPM_P1;HPM_P2
2022/07/11 00:01:45;;;;;;;;;;;16.60;99.90;;;;;;5017852;28;19917;-68
2022/07/11 00:04:11;;;;;;;;;;;16.70;99.90;;;;;;5018191;28;19944;-68
2022/07/11 00:06:36;;;;;;;;;;;16.60;99.90;;;;;;5013953;28;20100;-68
2022/07/11 00:09:02;;;;;;;;;;;16.60;99.90;;;;;;5014599;28;20036;-68
2022/07/11 00:11:27;;;;;;;;;;;16.50;99.90;;;;;;5006147;28;19974;-68
2022/07/11 00:13:53;;;;;;;;;;;16.60;99.90;;;;;;5020052;28;19917;-68
2022/07/11 00:16:18;;;;;;;;;;;16.50;99.90;;;;;;5001022;28;19916;-68
2022/07/11 00:18:44;;;;;;;;;;;16.50;99.90;;;;;;5024389;28;19917;-68
2022/07/11 00:21:10;;;;;;;;;;;16.50;99.90;;;;;;5006193;28;19967;-68
2022/07/11 00:23:36;;;;;;;;;;;16.40;99.90;;;;;;4985261;28;20396;-69
2022/07/11 00:26:02;;;;;;;;;;;16.50;99.90;;;;;;5015749;28;19925;-68
2022/07/11 00:28:27;;;;;;;;;;;16.50;99.90;;;;;;5029839;28;19932;-68
2022/07/11 00:30:53;;;;;;;;;;;16.50;99.90;;;;;;4998810;28;20297;-68
2022/07/11 00:33:18;;;;;;;;;;;16.50;99.90;;;;;;5007364;28;19974;-68
2022/07/11 00:35:44;;;;;;;;;;;16.50;99.90;;;;;;5002017;28;19947;-68
2022/07/11 00:38:09;;;;;;;;;;;16.50;99.90;;;;;;5017921;28;19924;-68
2022/07/11 00:40:35;;;;;;;;;;;16.60;99.90;;;;;;5014671;28;19935;-68
2022/07/11 00:43:03;;;;;;;;;;;16.50;99.90;;;;;;5019395;28;19927;-68
2022/07/11 00:45:28;;;;;;;;;;;16.50;99.90;;;;;;5021328;28;19920;-68
2022/07/11 00:47:55;;;;;;;;;;;16.50;99.90;;;;;;5021492;28;20007;-68
2022/07/11 00:50:21;;;;;;;;;;;16.50;99.90;;;;;;4997959;28;19961;-68
2022/07/11 00:52:47;;;;;;;;;;;16.50;99.90;;;;;;5010182;28;19920;-68
2022/07/11 00:55:13;;;;;;;;;;;16.50;99.90;;;;;;5004366;28;19921;-68
2022/07/11 00:57:38;;;;;;;;;;;16.40;99.90;;;;;;5022524;28;19929;-68
2022/07/11 01:00:04;;;;;;;;;;;16.40;99.90;;;;;;5003870;28;20333;-68
2022/07/11 01:02:30;;;;;;;;;;;16.40;99.90;;;;;;5021147;28;20005;-68
2022/07/11 01:04:56;;;;;;;;;;;16.40;99.90;;;;;;5003671;28;19925;-68
2022/07/11 01:07:21;;;;;;;;;;;16.40;99.90;;;;;;5020641;28;19917;-68
2022/07/11 01:09:47;;;;;;;;;;;16.40;99.90;;;;;;5019906;28;19973;-68
2022/07/11 01:12:12;;;;;;;;;;;16.50;99.90;;;;;;5007294;28;19975;-68
2022/07/11 01:14:38;;;;;;;;;;;16.50;99.90;;;;;;5009099;28;20252;-68
2022/07/11 01:17:04;;;;;;;;;;;16.50;99.90;;;;;;5005072;28;19917;-68
2022/07/11 01:19:29;;;;;;;;;;;16.40;99.90;;;;;;5024813;28;19932;-68
2022/07/11 01:21:57;;;;;;;;;;;16.50;99.90;;;;;;5019552;28;19982;-67
2022/07/11 01:24:23;;;;;;;;;;;16.40;99.90;;;;;;5003738;28;19917;-68
2022/07/11 01:26:50;;;;;;;;;;;16.40;99.90;;;;;;5007741;28;20000;-68
2022/07/11 01:29:16;;;;;;;;;;;16.40;99.90;;;;;;5014846;28;20293;-67
2022/07/11 01:31:42;;;;;;;;;;;16.50;99.90;;;;;;5007853;28;20133;-68
2022/07/11 01:34:07;;;;;;;;;;;16.40;99.90;;;;;;5025000;28;19921;-68
2022/07/11 01:36:33;;;;;;;;;;;16.40;99.90;;;;;;5023803;28;19979;-69
2022/07/11 01:38:58;;;;;;;;;;;16.40;99.90;;;;;;5001872;28;20396;-67
2022/07/11 01:41:24;;;;;;;;;;;16.40;99.90;;;;;;5022818;28;20006;-68
2022/07/11 01:43:50;;;;;;;;;;;16.40;99.90;;;;;;5000425;28;19928;-68
2022/07/11 01:46:16;;;;;;;;;;;16.40;99.90;;;;;;5017067;28;19917;-68
2022/07/11 01:48:42;;;;;;;;;;;16.40;99.90;;;;;;4989705;28;20270;-68
2022/07/11 01:51:07;;;;;;;;;;;16.40;99.90;;;;;;5001456;28;19924;-68
2022/07/11 01:53:35;;;;;;;;;;;16.30;99.90;;;;;;5018071;28;19923;-68
2022/07/11 01:56:01;;;;;;;;;;;16.30;99.90;;;;;;5004667;28;19924;-68
2022/07/11 01:58:29;;;;;;;;;;;16.40;99.90;;;;;;5020699;28;19925;-67
2022/07/11 02:00:54;;;;;;;;;;;16.30;99.90;;;;;;5023340;28;20007;-68
2022/07/11 02:03:20;;;;;;;;;;;16.30;99.90;;;;;;4992295;28;20400;-67
2022/07/11 02:05:45;;;;;;;;;;;16.30;99.90;;;;;;5015155;28;19917;-69
2022/07/11 02:08:14;;;;;;;;;;;16.30;99.90;;;;;;5007616;28;19920;-70
2022/07/11 02:10:41;;;;;;;;;;;16.20;99.90;;;;;;5020649;28;19917;-70
2022/07/11 02:13:06;;;;;;;;;;;16.20;99.90;;;;;;5013519;28;20016;-70
2022/07/11 02:15:32;;;;;;;;;;;16.20;99.90;;;;;;5006786;28;20003;-70
2022/07/11 02:17:57;;;;;;;;;;;16.20;99.90;;;;;;5005924;28;19947;-70
2022/07/11 02:20:23;;;;;;;;;;;16.30;99.90;;;;;;5022269;28;19939;-70
2022/07/11 02:22:49;;;;;;;;;;;16.20;99.90;;;;;;5003404;28;19935;-70
2022/07/11 02:25:15;;;;;;;;;;;16.20;99.90;;;;;;5011558;28;20007;-70
2022/07/11 02:27:41;;;;;;;;;;;16.20;99.90;;;;;;5021002;28;19925;-70
2022/07/11 02:30:07;;;;;;;;;;;16.20;99.90;;;;;;5019379;28;20030;-70
2022/07/11 02:32:32;;;;;;;;;;;16.20;99.90;;;;;;4977404;28;20258;-70
2022/07/11 02:34:58;;;;;;;;;;;16.20;99.90;;;;;;5001572;28;19920;-70
2022/07/11 02:37:24;;;;;;;;;;;16.10;99.90;;;;;;5009561;28;19917;-70
2022/07/11 02:39:49;;;;;;;;;;;16.10;99.90;;;;;;5001428;28;19917;-70
2022/07/11 02:42:15;;;;;;;;;;;16.10;99.90;;;;;;5013543;28;19948;-70
2022/07/11 02:44:40;;;;;;;;;;;16.10;99.90;;;;;;5018105;28;19925;-69
2022/07/11 02:47:06;;;;;;;;;;;16.10;99.90;;;;;;5001180;28;19927;-70
2022/07/11 02:49:32;;;;;;;;;;;16.10;99.90;;;;;;5023374;28;19971;-70
2022/07/11 02:52:00;;;;;;;;;;;16.10;99.90;;;;;;5017951;28;20048;-70
2022/07/11 02:54:26;;;;;;;;;;;16.10;99.90;;;;;;5013798;28;19917;-70
2022/07/11 02:56:51;;;;;;;;;;;16.10;99.90;;;;;;5004499;28;20321;-69
2022/07/11 02:59:17;;;;;;;;;;;16.10;99.90;;;;;;5016370;28;19920;-70
2022/07/11 03:01:47;;;;;;;;;;;16.20;99.90;;;;;;5023173;28;19921;-70
2022/07/11 03:04:12;;;;;;;;;;;16.10;99.90;;;;;;5006126;28;19966;-70
2022/07/11 03:06:38;;;;;;;;;;;16.20;99.90;;;;;;5013599;28;19920;-69
2022/07/11 03:09:04;;;;;;;;;;;16.20;99.90;;;;;;5000623;28;19928;-70
2022/07/11 03:11:31;;;;;;;;;;;16.10;99.90;;;;;;5007651;28;19924;-70
2022/07/11 03:13:57;;;;;;;;;;;16.20;99.90;;;;;;4999160;28;20402;-69
2022/07/11 03:16:22;;;;;;;;;;;16.20;99.90;;;;;;5006263;28;19931;-70
2022/07/11 03:18:48;;;;;;;;;;;16.10;99.90;;;;;;5007697;28;20009;-70
2022/07/11 03:21:13;;;;;;;;;;;16.20;99.90;;;;;;5005631;28;19928;-69
2022/07/11 03:23:39;;;;;;;;;;;16.10;99.90;;;;;;5008974;28;19951;-69
2022/07/11 03:26:04;;;;;;;;;;;16.10;99.90;;;;;;5003947;28;19923;-69
2022/07/11 03:28:30;;;;;;;;;;;16.10;99.90;;;;;;5007224;28;20405;-70
2022/07/11 03:30:55;;;;;;;;;;;16.10;99.90;;;;;;5022634;28;19953;-70
2022/07/11 03:33:21;;;;;;;;;;;16.10;99.90;;;;;;5007404;28;19996;-70
2022/07/11 03:35:47;;;;;;;;;;;16.00;99.90;;;;;;5018309;28;19921;-70
2022/07/11 03:38:15;;;;;;;;;;;16.10;99.90;;;;;;5019010;28;20068;-69
2022/07/11 03:40:41;;;;;;;;;;;16.00;99.90;;;;;;5014915;28;19933;-70
2022/07/11 03:43:06;;;;;;;;;;;16.10;99.90;;;;;;5010716;28;20002;-69
2022/07/11 03:45:32;;;;;;;;;;;16.10;99.90;;;;;;5015310;28;19992;-70
2022/07/11 03:47:57;;;;;;;;;;;16.10;99.90;;;;;;4988737;28;20000;-70
2022/07/11 03:50:23;;;;;;;;;;;16.10;99.90;;;;;;5023009;28;19917;-70
2022/07/11 03:52:48;;;;;;;;;;;16.10;99.90;;;;;;5022663;28;19925;-72
2022/07/11 03:55:14;;;;;;;;;;;16.10;99.90;;;;;;4997529;28;19920;-72
2022/07/11 03:57:39;;;;;;;;;;;16.10;99.90;;;;;;5013777;28;19917;-72
2022/07/11 04:00:07;;;;;;;;;;;16.00;99.90;;;;;;5015071;28;20314;-72
2022/07/11 04:02:33;;;;;;;;;;;16.10;99.90;;;;;;5007349;28;19921;-72
2022/07/11 04:04:58;;;;;;;;;;;16.10;99.90;;;;;;5020318;28;20365;-72
2022/07/11 04:07:24;;;;;;;;;;;16.00;99.90;;;;;;5010475;28;19936;-72
2022/07/11 04:09:49;;;;;;;;;;;16.10;99.90;;;;;;4995113;28;19928;-72
2022/07/11 04:12:17;;;;;;;;;;;16.10;99.90;;;;;;5009943;28;20024;-72
2022/07/11 04:14:43;;;;;;;;;;;16.10;99.90;;;;;;5016849;28;19917;-72
2022/07/11 04:17:08;;;;;;;;;;;16.10;99.90;;;;;;5004152;28;19936;-72
2022/07/11 04:19:34;;;;;;;;;;;16.10;99.90;;;;;;5024153;28;20056;-72
2022/07/11 04:21:59;;;;;;;;;;;16.10;99.90;;;;;;5043761;23;19955;-70
2022/07/11 04:24:25;;;;;;;;;;;16.10;99.90;;;;;;5042048;28;19932;-70
2022/07/11 04:26:50;;;;;;;;;;;16.10;99.90;;;;;;5041557;28;20777;-70
2022/07/11 04:29:16;;;;;;;;;;;16.10;99.90;;;;;;5035702;28;19917;-70
2022/07/11 04:31:42;;;;;;;;;;;16.10;99.90;;;;;;5027991;28;19917;-70
2022/07/11 04:34:07;;;;;;;;;;;16.10;99.90;;;;;;5041989;28;20016;-71
2022/07/11 04:36:33;;;;;;;;;;;16.00;99.90;;;;;;5042131;28;20126;-70
2022/07/11 04:38:58;;;;;;;;;;;16.10;99.90;;;;;;5040811;28;19928;-70
2022/07/11 04:41:24;;;;;;;;;;;16.00;99.90;;;;;;5022194;28;19928;-70
2022/07/11 04:43:49;;;;;;;;;;;16.10;99.90;;;;;;5018171;28;19956;-70
2022/07/11 04:46:15;;;;;;;;;;;16.10;99.90;;;;;;5036729;28;19917;-70
2022/07/11 04:48:40;;;;;;;;;;;16.10;99.90;;;;;;5040398;28;20373;-70
2022/07/11 04:51:06;;;;;;;;;;;16.10;99.90;;;;;;5038382;28;19917;-70
2022/07/11 04:53:35;;;;;;;;;;;16.10;99.90;;;;;;5039156;28;19916;-70
2022/07/11 04:56:03;;;;;;;;;;;16.10;99.90;;;;;;5000981;28;19951;-70
2022/07/11 04:58:32;;;;;;;;;;;16.10;99.90;;;;;;5014432;28;20007;-70
2022/07/11 05:00:57;;;;;;;;;;;16.20;99.90;;;;;;5036378;28;19929;-70
2022/07/11 05:03:23;;;;;;;;;;;16.20;99.90;;;;;;5038644;28;20016;-70
2022/07/11 05:05:49;;;;;;;;;;;16.20;99.90;;;;;;5033976;28;20175;-70
2022/07/11 05:08:14;;;;;;;;;;;16.20;99.90;;;;;;5042470;28;19935;-70
2022/07/11 05:10:39;;;;;;;;;;;16.10;99.90;;;;;;5036225;28;20003;-70
2022/07/11 05:13:05;;;;;;;;;;;16.20;99.90;;;;;;5037568;28;19917;-70
2022/07/11 05:15:31;;;;;;;;;;;16.20;99.90;;;;;;5023986;28;19917;-70
2022/07/11 05:17:56;;;;;;;;;;;16.20;99.90;;;;;;5034805;28;20414;-70
2022/07/11 05:20:22;;;;;;;;;;;16.30;99.90;;;;;;5043187;28;20437;-70
2022/07/11 05:22:48;;;;;;;;;;;16.30;99.90;;;;;;5025297;28;20607;-70
2022/07/11 05:25:13;;;;;;;;;;;16.30;99.90;;;;;;5042755;28;20016;-70
2022/07/11 05:27:39;;;;;;;;;;;16.30;99.90;;;;;;5035838;28;19923;-70
2022/07/11 05:30:05;;;;;;;;;;;16.30;99.90;;;;;;5037988;28;19924;-70
2022/07/11 05:32:30;;;;;;;;;;;16.30;99.90;;;;;;5027540;28;19971;-70
2022/07/11 05:35:01;;;;;;;;;;;16.40;99.90;;;;;;5023014;28;19917;-70
2022/07/11 05:37:27;;;;;;;;;;;16.40;99.90;;;;;;5023346;28;19925;-70
2022/07/11 05:39:53;;;;;;;;;;;16.40;99.90;;;;;;5023686;28;19974;-70
2022/07/11 05:42:18;;;;;;;;;;;16.50;99.90;;;;;;5013609;28;19932;-70
2022/07/11 05:44:44;;;;;;;;;;;16.40;99.90;;;;;;5033042;28;20285;-70
2022/07/11 05:47:09;;;;;;;;;;;16.40;99.90;;;;;;5016385;28;19924;-70
2022/07/11 05:49:35;;;;;;;;;;;16.50;99.90;;;;;;5029044;28;20534;-70
2022/07/11 05:52:01;;;;;;;;;;;16.50;99.90;;;;;;5039863;28;19916;-70
2022/07/11 05:54:27;;;;;;;;;;;16.50;99.90;;;;;;5041813;28;19917;-70
2022/07/11 05:56:53;;;;;;;;;;;16.50;99.90;;;;;;5028799;28;20382;-70
2022/07/11 05:59:19;;;;;;;;;;;16.50;99.90;;;;;;5041818;28;19963;-70
2022/07/11 06:01:44;;;;;;;;;;;16.50;99.90;;;;;;5020357;28;20348;-70
2022/07/11 06:04:10;;;;;;;;;;;16.50;99.90;;;;;;5043416;28;19952;-70
2022/07/11 06:06:35;;;;;;;;;;;16.50;99.90;;;;;;4996555;28;19955;-70
2022/07/11 06:09:01;;;;;;;;;;;16.50;99.90;;;;;;5041299;28;19921;-70
2022/07/11 06:11:26;;;;;;;;;;;16.50;99.90;;;;;;5040279;28;19951;-70
2022/07/11 06:13:52;;;;;;;;;;;16.50;99.90;;;;;;5034280;28;19920;-70
2022/07/11 06:16:18;;;;;;;;;;;16.50;99.90;;;;;;5036638;28;19924;-70
2022/07/11 06:18:44;;;;;;;;;;;16.60;99.90;;;;;;5019643;28;19917;-70
2022/07/11 06:21:09;;;;;;;;;;;16.60;99.90;;;;;;5039402;28;19921;-70
2022/07/11 06:23:35;;;;;;;;;;;16.60;99.90;;;;;;5017679;28;19943;-70
2022/07/11 06:26:01;;;;;;;;;;;16.60;99.90;;;;;;5012103;28;19927;-70
2022/07/11 06:28:26;;;;;;;;;;;16.70;99.90;;;;;;5036964;28;19967;-70
2022/07/11 06:30:52;;;;;;;;;;;16.60;99.90;;;;;;5040489;28;20079;-70
2022/07/11 06:33:18;;;;;;;;;;;16.70;99.90;;;;;;5022397;28;19974;-70
2022/07/11 06:35:44;;;;;;;;;;;16.80;99.90;;;;;;5023664;28;19974;-70
2022/07/11 06:38:10;;;;;;;;;;;16.70;99.90;;;;;;5023251;28;20242;-70
2022/07/11 06:40:36;;;;;;;;;;;16.80;99.90;;;;;;5034888;28;19964;-70
2022/07/11 06:43:01;;;;;;;;;;;16.80;99.90;;;;;;5028568;28;19975;-70
2022/07/11 06:45:27;;;;;;;;;;;16.80;99.90;;;;;;5020649;28;19925;-70
2022/07/11 06:47:52;;;;;;;;;;;16.80;99.90;;;;;;5038147;28;19928;-70
2022/07/11 06:50:18;;;;;;;;;;;16.80;99.90;;;;;;5025535;28;19947;-70
2022/07/11 06:52:46;;;;;;;;;;;16.80;99.90;;;;;;5036883;28;19927;-68
2022/07/11 06:55:11;;;;;;;;;;;16.80;99.90;;;;;;5019851;28;20016;-67
2022/07/11 06:57:37;;;;;;;;;;;16.80;99.90;;;;;;5038681;28;20025;-68
2022/07/11 07:00:03;;;;;;;;;;;16.80;99.90;;;;;;5025104;28;20357;-67
2022/07/11 07:02:30;;;;;;;;;;;16.80;99.90;;;;;;5005509;28;19917;-69
2022/07/11 07:04:58;;;;;;;;;;;16.90;99.90;;;;;;5037802;28;20006;-68
2022/07/11 07:07:24;;;;;;;;;;;16.90;99.90;;;;;;5033123;28;19917;-67
2022/07/11 07:09:50;;;;;;;;;;;16.90;99.90;;;;;;5004421;28;20416;-68
2022/07/11 07:12:16;;;;;;;;;;;16.90;99.90;;;;;;5019042;28;19917;-68
2022/07/11 07:14:41;;;;;;;;;;;16.90;99.90;;;;;;5038625;28;19923;-67
2022/07/11 07:17:07;;;;;;;;;;;17.00;99.90;;;;;;5003559;28;19967;-68
2022/07/11 07:19:32;;;;;;;;;;;17.00;99.90;;;;;;5040818;28;19960;-68
2022/07/11 07:21:58;;;;;;;;;;;17.10;99.90;;;;;;5033654;28;20643;-68
2022/07/11 07:24:24;;;;;;;;;;;17.10;99.90;;;;;;5003751;28;19921;-68
2022/07/11 07:26:49;;;;;;;;;;;17.10;99.90;;;;;;5018895;28;20292;-68
2022/07/11 07:29:15;;;;;;;;;;;17.10;99.90;;;;;;5039297;28;19928;-68
2022/07/11 07:31:40;;;;;;;;;;;17.20;99.90;;;;;;5019837;28;20007;-68
2022/07/11 07:34:08;;;;;;;;;;;17.20;99.90;;;;;;5017896;28;19916;-68
2022/07/11 07:36:33;;;;;;;;;;;17.20;99.90;;;;;;5023716;28;20284;-68
2022/07/11 07:38:59;;;;;;;;;;;17.10;99.90;;;;;;5037309;28;19916;-70
2022/07/11 07:41:25;;;;;;;;;;;17.30;99.90;;;;;;5002340;28;20357;-68
2022/07/11 07:43:51;;;;;;;;;;;17.30;99.90;;;;;;5026175;28;19962;-68
2022/07/11 07:46:17;;;;;;;;;;;17.30;99.90;;;;;;5035805;28;20538;-68
2022/07/11 07:48:42;;;;;;;;;;;17.30;99.90;;;;;;5015772;28;19924;-68
2022/07/11 07:51:08;;;;;;;;;;;17.40;99.90;;;;;;5031423;28;19917;-68
2022/07/11 07:53:34;;;;;;;;;;;17.50;99.90;;;;;;5035608;28;19959;-72
2022/07/11 07:55:59;;;;;;;;;;;17.50;99.90;;;;;;5026936;28;19940;-72
2022/07/11 07:58:25;;;;;;;;;;;17.50;99.90;;;;;;5041631;28;19916;-68
2022/07/11 08:03:35;;;;;;;;;;;17.40;99.90;;;;;;5041713;28;20377;-69
2022/07/11 08:06:00;;;;;;;;;;;17.40;99.90;;;;;;5024663;28;19921;-68
2022/07/11 08:08:26;;;;;;;;;;;17.50;99.90;;;;;;5010953;28;20006;-68
2022/07/11 08:10:52;;;;;;;;;;;17.50;99.90;;;;;;5013305;28;19924;-67
2022/07/11 08:13:17;;;;;;;;;;;17.50;99.90;;;;;;5003291;28;19917;-68
2022/07/11 08:15:43;;;;;;;;;;;17.50;99.90;;;;;;5032565;28;20336;-68
2022/07/11 08:18:08;;;;;;;;;;;17.50;99.90;;;;;;5032738;28;19917;-68
2022/07/11 08:20:34;;;;;;;;;;;17.60;99.90;;;;;;5029472;28;20414;-67
2022/07/11 08:23:00;;;;;;;;;;;17.60;99.90;;;;;;5019018;28;19928;-68
2022/07/11 08:25:26;;;;;;;;;;;17.70;99.90;;;;;;5012471;28;19928;-68
2022/07/11 08:27:51;;;;;;;;;;;17.70;99.90;;;;;;5017101;28;19955;-68
2022/07/11 08:30:17;;;;;;;;;;;17.70;99.90;;;;;;5039034;28;19924;-68
2022/07/11 08:32:43;;;;;;;;;;;17.80;99.90;;;;;;5032477;28;20031;-68
2022/07/11 08:35:08;;;;;;;;;;;17.80;99.90;;;;;;5017893;28;19916;-69
2022/07/11 08:37:34;;;;;;;;;;;17.90;99.90;;;;;;5013989;28;19920;-70
2022/07/11 08:40:00;;;;;;;;;;;18.00;99.90;;;;;;5012539;28;19916;-68
2022/07/11 08:42:28;;;;;;;;;;;18.00;99.90;;;;;;5025391;28;20015;-68
2022/07/11 08:44:55;;;;;;;;;;;18.00;99.90;;;;;;5030571;28;20377;-68
2022/07/11 08:47:21;;;;;;;;;;;18.00;99.90;;;;;;5012342;28;20127;-70
2022/07/11 08:49:46;;;;;;;;;;;18.00;99.90;;;;;;5033274;28;19925;-70
2022/07/11 08:52:13;;;;;;;;;;;18.00;99.90;;;;;;5020402;28;19992;-71
2022/07/11 08:54:38;;;;;;;;;;;18.10;99.90;;;;;;5023628;28;20463;-70
2022/07/11 08:57:04;;;;;;;;;;;18.20;99.90;;;;;;5011767;28;19932;-67
2022/07/11 08:59:31;;;;;;;;;;;18.20;99.90;;;;;;5029948;28;19925;-71
2022/07/11 09:01:59;;;;;;;;;;;18.20;99.90;;;;;;5020381;28;19983;-69
2022/07/11 09:04:25;;;;;;;;;;;18.20;99.90;;;;;;5006453;28;19921;-67
2022/07/11 09:06:51;;;;;;;;;;;18.20;99.90;;;;;;5036944;28;19942;-67
2022/07/11 09:09:16;;;;;;;;;;;18.20;99.90;;;;;;5023642;28;19917;-74
2022/07/11 09:11:56;;;;;;;;;;;18.20;99.90;;;;;;5008136;28;19916;-71
2022/07/11 09:14:24;;;;;;;;;;;18.10;99.90;;;;;;5019883;28;19916;-67
2022/07/11 09:16:54;;;;;;;;;;;18.20;99.90;;;;;;5023694;28;19917;-68
2022/07/11 09:19:20;;;;;;;;;;;18.20;99.90;;;;;;5014372;28;19917;-67
2022/07/11 09:27:44;;;;;;;;;;;18.30;99.90;;;;;;5038879;28;19925;-68
2022/07/11 09:30:26;;;;;;;;;;;18.20;99.90;;;;;;5023751;28;19920;-68
2022/07/11 09:32:59;;;;;;;;;;;18.20;99.90;;;;;;5042890;28;19924;-69
2022/07/11 09:35:27;;;;;;;;;;;18.30;99.90;;;;;;5048445;28;19920;-68
2022/07/11 09:37:53;;;;;;;;;;;18.30;99.90;;;;;;5043525;28;20003;-68
2022/07/11 09:40:18;;;;;;;;;;;18.20;99.90;;;;;;5042459;28;20007;-68
2022/07/11 09:42:52;;;;;;;;;;;18.30;99.90;;;;;;5035445;28;19928;-68
2022/07/11 09:45:22;;;;;;;;;;;18.30;99.90;;;;;;5020508;28;19917;-68
2022/07/11 09:47:48;;;;;;;;;;;18.30;99.90;;;;;;5039840;28;19976;-67
2022/07/11 09:50:17;;;;;;;;;;;18.40;99.90;;;;;;5042737;28;20744;-68
2022/07/11 09:52:57;;;;;;;;;;;18.40;99.90;;;;;;5025372;28;19971;-68
2022/07/11 09:55:23;;;;;;;;;;;18.50;99.90;;;;;;5025985;28;19917;-68
2022/07/11 09:57:49;;;;;;;;;;;18.50;99.90;;;;;;5038523;28;20028;-68
2022/07/11 10:00:14;;;;;;;;;;;18.50;99.90;;;;;;5016397;28;20015;-68
2022/07/11 10:02:40;;;;;;;;;;;18.50;99.90;;;;;;5030017;28;19979;-69
2022/07/11 10:05:06;;;;;;;;;;;18.50;99.90;;;;;;5027263;28;19917;-68
2022/07/11 10:07:32;;;;;;;;;;;18.50;99.90;;;;;;5028808;28;19970;-69
2022/07/11 10:10:01;;;;;;;;;;;18.60;99.90;;;;;;5028804;28;19932;-69
2022/07/11 10:12:29;;;;;;;;;;;18.70;99.90;;;;;;5021702;28;19956;-68
2022/07/11 10:14:56;;;;;;;;;;;18.70;99.90;;;;;;5038398;28;20345;-68
2022/07/11 10:17:34;;;;;;;;;;;18.80;99.90;;;;;;5021637;28;19920;-68
2022/07/11 10:20:14;;;;;;;;;;;18.90;99.90;;;;;;5034821;28;19916;-68
2022/07/11 10:22:53;;;;;;;;;;;19.00;99.90;;;;;;5032188;23;19924;-68
2022/07/11 10:25:24;;;;;;;;;;;19.00;99.90;;;;;;5002471;28;19977;-68
2022/07/11 10:28:07;;;;;;;;;;;19.00;99.90;;;;;;5000874;28;21397;-68
2022/07/11 10:30:43;;;;;;;;;;;19.00;99.90;;;;;;4998393;28;19970;-68
2022/07/11 10:33:08;;;;;;;;;;;19.00;99.90;;;;;;5021814;28;19925;-68
2022/07/11 10:35:34;;;;;;;;;;;19.00;99.90;;;;;;4996419;28;19920;-67
2022/07/11 10:38:04;;;;;;;;;;;19.00;99.90;;;;;;4978169;28;19978;-68
2022/07/11 10:40:48;;;;;;;;;;;19.10;99.90;;;;;;5027391;28;20172;-68
2022/07/11 10:43:15;;;;;;;;;;;19.10;99.90;;;;;;5001132;28;20377;-68
2022/07/11 10:45:57;;;;;;;;;;;19.20;99.90;;;;;;5027443;28;20481;-68
2022/07/11 10:48:23;;;;;;;;;;;19.20;99.90;;;;;;5005471;28;19917;-68
2022/07/11 10:50:53;;;;;;;;;;;19.30;99.90;;;;;;4979223;28;20011;-67
2022/07/11 10:53:22;;;;;;;;;;;19.30;99.90;;;;;;5018598;28;19952;-68
2022/07/11 10:56:14;;;;;;;;;;;19.30;99.90;;;;;;4997304;28;20008;-67
2022/07/11 10:58:43;;;;;;;;;;;19.30;99.90;;;;;;4987003;28;20296;-67
2022/07/11 11:01:15;;;;;;;;;;;19.20;99.90;;;;;;4975928;28;19925;-68
2022/07/11 11:03:42;;;;;;;;;;;19.20;99.90;;;;;;5006453;28;20395;-68
2022/07/11 11:06:08;;;;;;;;;;;19.30;99.90;;;;;;5019763;28;19931;-68
2022/07/11 11:08:37;;;;;;;;;;;19.30;99.90;;;;;;5000276;28;19920;-68
2022/07/11 11:11:21;;;;;;;;;;;19.30;99.90;;;;;;4995971;28;20274;-68
2022/07/11 11:14:07;;;;;;;;;;;19.30;99.90;;;;;;4995202;28;19975;-68
2022/07/11 11:16:32;;;;;;;;;;;19.40;99.90;;;;;;4995863;28;19960;-69
2022/07/11 11:18:58;;;;;;;;;;;19.30;99.90;;;;;;5004580;28;19974;-68
2022/07/11 11:21:24;;;;;;;;;;;19.40;99.90;;;;;;5021857;28;19931;-68
2022/07/11 11:23:58;;;;;;;;;;;19.50;99.90;;;;;;5018232;28;19975;-69
2022/07/11 11:26:24;;;;;;;;;;;19.50;99.90;;;;;;5001285;28;19960;-68
2022/07/11 11:28:56;;;;;;;;;;;19.60;99.90;;;;;;5003801;28;19959;-68
2022/07/11 11:31:22;;;;;;;;;;;19.60;99.90;;;;;;5019754;28;19943;-68
2022/07/11 11:33:48;;;;;;;;;;;19.70;99.90;;;;;;5017415;28;19924;-68
2022/07/11 11:36:15;;;;;;;;;;;19.70;99.90;;;;;;5005268;28;19936;-68
2022/07/11 11:38:41;;;;;;;;;;;19.80;99.90;;;;;;5000501;28;19933;-68
2022/07/11 11:41:07;;;;;;;;;;;19.70;99.90;;;;;;5000969;28;19940;-68
2022/07/11 11:43:33;;;;;;;;;;;19.70;99.90;;;;;;4998556;28;20597;-68
2022/07/11 11:45:58;;;;;;;;;;;19.70;99.90;;;;;;5015970;28;20325;-68
2022/07/11 11:48:31;;;;;;;;;;;19.70;99.90;;;;;;4996413;28;19952;-68
2022/07/11 11:51:03;;;;;;;;;;;19.80;99.90;;;;;;5010515;28;19967;-68
2022/07/11 11:53:36;;;;;;;;;;;19.80;99.90;;;;;;5019786;28;20548;-68
2022/07/11 11:56:10;;;;;;;;;;;19.80;99.90;;;;;;5018989;28;19929;-69
2022/07/11 11:58:36;;;;;;;;;;;19.80;99.90;;;;;;5014747;28;19960;-69
2022/07/11 12:01:01;;;;;;;;;;;19.90;99.90;;;;;;5018232;28;20036;-69
2022/07/11 12:03:45;;;;;;;;;;;19.90;99.90;;;;;;5017902;28;19917;-68
2022/07/11 12:06:11;;;;;;;;;;;20.00;99.90;;;;;;5017546;28;19917;-69
2022/07/11 12:08:36;;;;;;;;;;;19.90;99.90;;;;;;5017106;28;19924;-70
2022/07/11 12:11:02;;;;;;;;;;;20.00;99.90;;;;;;5000833;28;19917;-69
2022/07/11 12:13:27;;;;;;;;;;;20.00;99.90;;;;;;5004292;28;19933;-71
2022/07/11 12:18:37;;;;;;;;;;;20.00;99.90;;;;;;4996536;28;19921;-70
2022/07/11 12:21:12;;;;;;;;;;;20.00;99.90;;;;;;5003261;28;20308;-71
2022/07/11 12:23:38;;;;;;;;;;;20.00;99.90;;;;;;4997694;28;20274;-68
2022/07/11 12:26:04;;;;;;;;;;;20.00;99.90;;;;;;4985904;28;19943;-69
2022/07/11 12:28:31;;;;;;;;;;;19.90;99.90;;;;;;4996589;28;19968;-71
2022/07/11 12:30:57;;;;;;;;;;;20.00;99.90;;;;;;4997096;28;20361;-69
2022/07/11 12:33:26;;;;;;;;;;;19.90;99.90;;;;;;5017206;28;19917;-69
2022/07/11 12:35:53;;;;;;;;;;;19.90;99.90;;;;;;5008692;28;20429;-70
2022/07/11 12:38:18;;;;;;;;;;;20.00;99.90;;;;;;5017784;28;20023;-69
2022/07/11 12:40:57;;;;;;;;;;;20.00;99.90;;;;;;5001011;28;20004;-70
2022/07/11 12:44:58;;;;;;;;;;;19.90;99.90;;;;;;4993650;28;19979;-72
2022/07/11 12:46:23;;;;;;;;;;;19.90;99.90;;;;;;5016633;28;20008;-72
2022/07/11 12:48:50;;;;;;;;;;;19.80;99.90;;;;;;5003855;28;20020;-70
2022/07/11 12:51:25;;;;;;;;;;;19.80;99.90;;;;;;5004695;28;20282;-71
2022/07/11 12:53:57;;;;;;;;;;;19.70;99.90;;;;;;5002323;28;19921;-72
2022/07/11 12:56:23;;;;;;;;;;;19.60;99.90;;;;;;5002633;28;19921;-72
2022/07/11 12:58:48;;;;;;;;;;;19.60;99.90;;;;;;5001640;28;19921;-71
2022/07/11 13:01:14;;;;;;;;;;;19.60;99.90;;;;;;4999027;28;19987;-70
2022/07/11 13:03:40;;;;;;;;;;;19.60;99.90;;;;;;5007315;28;19952;-70
2022/07/11 13:06:05;;;;;;;;;;;19.60;99.90;;;;;;5001599;28;19917;-70
2022/07/11 13:08:46;;;;;;;;;;;19.70;99.90;;;;;;5020108;28;20289;-68
2022/07/11 13:11:15;;;;;;;;;;;19.70;99.90;;;;;;5016542;28;20000;-68
2022/07/11 13:13:41;;;;;;;;;;;19.70;99.90;;;;;;5004224;28;20000;-68
2022/07/11 13:16:07;;;;;;;;;;;19.80;99.90;;;;;;5006722;28;19917;-68
2022/07/11 13:18:33;;;;;;;;;;;19.70;99.90;;;;;;5026994;28;19924;-68
2022/07/11 13:20:58;;;;;;;;;;;19.80;99.90;;;;;;5016265;28;19925;-68
2022/07/11 13:23:24;;;;;;;;;;;19.90;99.90;;;;;;5008371;28;20311;-68
2022/07/11 13:25:50;;;;;;;;;;;20.00;99.90;;;;;;4985357;28;20031;-69
2022/07/11 13:28:15;;;;;;;;;;;20.00;99.90;;;;;;5020815;28;20149;-68
2022/07/11 13:30:41;;;;;;;;;;;20.10;99.90;;;;;;5025017;28;19928;-68
2022/07/11 13:33:06;;;;;;;;;;;20.20;99.90;;;;;;5004438;28;19921;-69
2022/07/11 13:35:32;;;;;;;;;;;20.20;99.90;;;;;;5005833;28;20490;-69
2022/07/11 13:37:57;;;;;;;;;;;20.20;99.90;;;;;;5003876;28;20003;-69
2022/07/11 13:40:24;;;;;;;;;;;20.10;99.90;;;;;;5019736;28;20020;-69
2022/07/11 13:42:50;;;;;;;;;;;20.00;99.90;;;;;;5000055;28;19939;-69
2022/07/11 13:45:20;;;;;;;;;;;20.00;99.90;;;;;;4986809;28;19917;-69
2022/07/11 13:47:47;;;;;;;;;;;20.00;99.90;;;;;;5018350;28;19917;-69
2022/07/11 13:50:12;;;;;;;;;;;20.00;99.90;;;;;;5016116;28;20384;-69
2022/07/11 13:52:38;;;;;;;;;;;20.10;99.90;;;;;;5022866;28;20012;-69
2022/07/11 13:55:04;;;;;;;;;;;20.20;99.90;;;;;;5018827;28;19917;-69
2022/07/11 13:57:29;;;;;;;;;;;20.20;99.90;;;;;;5019722;28;20474;-68
2022/07/11 13:59:56;;;;;;;;;;;20.20;99.90;;;;;;5021433;28;20153;-69
2022/07/11 14:02:22;;;;;;;;;;;20.20;99.90;;;;;;5004936;28;19963;-69
2022/07/11 14:04:48;;;;;;;;;;;20.20;99.90;;;;;;4997346;28;20334;-69
2022/07/11 14:07:13;;;;;;;;;;;20.20;99.90;;;;;;5004579;28;19972;-68
2022/07/11 14:09:39;;;;;;;;;;;20.20;99.90;;;;;;5017216;28;19921;-69
2022/07/11 14:12:05;;;;;;;;;;;20.10;99.90;;;;;;5016740;28;19952;-68
2022/07/11 14:14:31;;;;;;;;;;;20.10;99.90;;;;;;5004660;28;20304;-69
2022/07/11 14:16:56;;;;;;;;;;;20.00;99.90;;;;;;5006049;28;19928;-68
2022/07/11 14:19:22;;;;;;;;;;;20.00;99.90;;;;;;5016047;28;20018;-69
2022/07/11 14:21:47;;;;;;;;;;;19.90;99.90;;;;;;5025393;28;20863;-69
2022/07/11 14:24:13;;;;;;;;;;;19.90;99.90;;;;;;5013428;28;20060;-69
2022/07/11 14:26:38;;;;;;;;;;;19.80;99.90;;;;;;5022776;28;19944;-68